• Join FlightAware (Why Join?)
  • Login
  • US Flag 
02:05AM EDT


 

Airport Tracker/Info


-or-


 

Live Flight TrackerFlight Track Log ✈ RPA3228 ✈ 16-Sep-2013 ✈ KBNA - KDCA

Flight Track Log - Related Links

Times and Time Zones

All times are in EDT time to prevent confusion due to time zone crossing. See the RPA3228 flight status page for this flight to view local times or setup timezone preferences in your user account.

Time Position Orientation Groundspeed Altitude Reporting Facility
EDT Latitude Longitude Course Direction KTS MPH feet Rate Location/Type
07:43AM 36.1500 -86.7000 56° Northeast 167 192 1,600  Level Nashville TRACON
07:44AM 36.1500 -86.7500 270° West 201 231 3,700 2,400 Climbing Nashville TRACON
07:45AM 36.2504 -86.2998 64° Northeast  Level Estimated
07:45AM 36.2167 -86.7167 22° Northeast 294 338 6,700  Level Nashville TRACON
07:46AM 36.2921 -86.1734 68° East  Level Estimated
07:46AM 36.2050 -86.5708 96° East 325 374 10,700  Level Memphis Center
07:47AM 36.3336 -86.0469 50° Northeast  Level Estimated
07:47AM 36.2036 -86.4553 91° East 325 374 12,900  Level Memphis Center
07:48AM 36.3751 -85.9203 56° Northeast  Level Estimated
07:48AM 36.2017 -86.3344 91° East 335 386 15,600  Level Memphis Center
07:49AM 36.1994 -86.2058 91° East 347 399 17,900 2,280 Climbing Memphis Center
07:50AM 36.2053 -86.0719 87° East 381 438 20,200 2,040 Climbing Memphis Center
07:52AM 36.3247 -85.7900 62° Northeast 412 474 24,700 1,800 Climbing Indianapolis Center
07:54AM 36.3872 -85.6617 59° Northeast 425 489 26,400 1,680 Climbing Indianapolis Center
07:55AM 36.4511 -85.5269 59° Northeast 444 511 28,200 1,260 Climbing Indianapolis Center
07:56AM 36.5156 -85.3928 59° Northeast 449 517 29,000 960 Climbing Indianapolis Center
07:57AM 36.5794 -85.2558 60° Northeast 454 522 30,200 1,440 Climbing Indianapolis Center
07:58AM 36.6347 -85.1131 64° Northeast 456 525 32,000 1,320 Climbing Indianapolis Center
07:59AM 36.6806 -84.9661 69° East 452 520 33,000 480 Climbing Indianapolis Center
08:00AM 36.7333 -84.7875 70° East 458 527 33,000  Level Indianapolis Center
08:01AM 36.7794 -84.6411 68° East 453 521 33,000  Level Indianapolis Center
08:02AM 36.8253 -84.4889 69° East 459 528 33,000  Level Indianapolis Center
08:03AM 36.8697 -84.3389 70° East 460 529 33,000  Level Indianapolis Center
08:04AM 36.9158 -84.1881 69° East 463 533 33,000  Level Indianapolis Center
08:05AM 36.9608 -84.0364 70° East 466 536 33,000  Level Indianapolis Center
08:06AM 37.0058 -83.8833 70° East 468 539 33,000  Level Indianapolis Center
08:07AM 37.0508 -83.7303 70° East 466 536 33,000  Level Indianapolis Center
08:08AM 37.0967 -83.5772 69° East 467 537 33,000  Level Indianapolis Center
08:09AM 37.1503 -83.3956 70° East 469 540 33,000  Level Indianapolis Center
08:10AM 37.1944 -83.2389 70° East 473 544 33,000  Level Indianapolis Center
08:11AM 37.2408 -83.0836 69° East 471 542 33,000  Level Indianapolis Center
08:12AM 37.2842 -82.9275 71° East 468 539 33,000  Level Indianapolis Center
08:13AM 37.3289 -82.7700 70° East 472 543 33,000  Level Indianapolis Center
08:14AM 37.3739 -82.6139 70° East 472 543 33,000  Level Indianapolis Center
08:15AM 37.4175 -82.4575 71° East 472 543 33,000  Level Indianapolis Center
08:16AM 37.4608 -82.3017 71° East 471 542 33,000  Level Indianapolis Center
08:17AM 37.5033 -82.1444 71° East 472 543 33,000  Level Indianapolis Center
08:18AM 37.5539 -81.9608 71° East 474 545 33,000  Level Indianapolis Center
08:19AM 37.5981 -81.8028 71° East 477 549 33,000  Level Indianapolis Center
08:20AM 37.6414 -81.6431 71° East 479 551 33,000  Level Indianapolis Center
08:21AM 37.6842 -81.4842 71° East 477 549 33,000  Level Indianapolis Center
08:22AM 37.7303 -81.3150 71° East 478 550 33,000  Level Indianapolis Center
08:23AM 37.7708 -81.1608 72° East 477 549 33,000  Level Indianapolis Center
08:24AM 37.8200 -81.0153 67° East 473 544 33,000  Level Indianapolis Center
08:25AM 37.8733 -80.8631 66° East 475 547 33,000  Level Indianapolis Center
08:26AM 37.9375 -80.6819 66° East 472 543 33,000  Level Indianapolis Center
08:27AM 37.9908 -80.5300 66° East 473 544 33,000 -300 Level Indianapolis Center
08:28AM 38.0403 -80.3869 66° East 477 549 32,500 -780 Descending Indianapolis Center
08:29AM 38.0989 -80.2222 66° East 479 551 31,500 -780 Descending Indianapolis Center
08:30AM 38.1583 -80.0553 66° East 480 552 31,000 -300 Descending Indianapolis Center
08:32AM 38.2133 -79.9006 66° East 487 560 31,000  Level Indianapolis Center
08:33AM 38.2664 -79.7472 66° East 487 560 31,000  Level Indianapolis Center
08:34AM 38.3303 -79.5622 66° East 485 558 31,000  Level Indianapolis Center
08:35AM 38.3822 -79.4089 67° East 483 556 31,000 -780 Level Indianapolis Center
08:36AM 38.4397 -79.2181 69° East 481 554 29,300 -1,800 Descending Washington Center
08:37AM 38.4694 -79.0550 77° East 476 548 27,000 -1,500 Descending Washington Center
08:38AM 38.4975 -78.8733 79° East 471 542 26,400 -1,500 Descending Washington Center
08:39AM 38.5206 -78.7125 80° East 471 542 24,000 -2,160 Descending Washington Center
08:40AM 38.5475 -78.5542 78° East 465 535 22,200 -1,500 Descending Washington Center
08:41AM 38.5722 -78.3986 78° East 454 522 21,100 -1,560 Descending Washington Center
08:42AM 38.5983 -78.2481 77° East 443 510 19,100 -1,860 Descending Washington Center
08:43AM 38.6389 -78.1142 69° East 421 484 17,400 -1,920 Descending Washington Center
08:44AM 38.6833 -77.9800 67° East 409 471 15,300 -2,040 Descending Washington Center
08:45AM 38.7253 -77.8536 67° East 398 458 13,400 -1,740 Descending Washington Center
08:46AM 38.7814 -77.7567 53° Northeast 362 417 11,900 -1,380 Descending Washington Center
08:47AM 38.8350 -77.6650 53° Northeast 333 383 10,700 -1,200 Descending Washington Center
08:47AM 38.8500 -77.6167 68° East 323 372 10,100 -1,320 Descending Potomac TRACON
08:48AM 38.8833 -77.5167 67° East 317 365 8,900 -1,380 Descending Potomac TRACON
08:49AM 38.9000 -77.4000 80° East 304 350 7,400 -1,320 Descending Potomac TRACON
08:50AM 38.8500 -77.3333 134° Southeast 292 336 6,300 -780 Descending Potomac TRACON
08:51AM 38.8167 -77.2500 117° Southeast 289 333 6,100 -180 Descending Potomac TRACON
08:52AM 38.7833 -77.1667 117° Southeast 244 281 6,000 -240 Descending Potomac TRACON
08:53AM 38.7500 -77.1167 131° Southeast 246 283 5,700 -780 Descending Potomac TRACON
08:54AM 38.6833 -77.1000 169° South 233 268 4,600 -1,020 Descending Potomac TRACON
08:55AM 38.6500 -77.0667 142° Southeast 238 274 3,700 -840 Descending Potomac TRACON
08:56AM 38.6833 -77.0167 49° Northeast 186 214 3,000 -720 Descending Potomac TRACON
08:57AM 38.7167 -77.0167 360° North 169 194 2,400 -780 Descending Potomac TRACON
08:58AM 38.7500 -77.0333 339° North 150 173 1,700 -840 Descending Potomac TRACON
08:59AM 38.8000 -77.0333 360° North 140 161 900 -840 Descending Potomac TRACON